Time;durP1;ratioP1;P1;durP2;ratioP2;P2;SDS_P1;SDS_P2;PMS_P1;PMS_P2;Temp;Humidity;BMP_temperature;BMP_pressure;BME280_temperature;BME280_humidity;BME280_pressure;Samples;Min_cycle;Max_cycle;Signal;HPM_P1;HPM_P2
2022/05/01 00:01:31;;;;;;;;;;;8.30;99.90;;;;;;5110130;28;19928;-71
2022/05/01 00:03:58;;;;;;;;;;;8.20;99.90;;;;;;5110216;28;19977;-73
2022/05/01 00:06:25;;;;;;;;;;;8.20;99.90;;;;;;5110094;28;19924;-71
2022/05/01 00:08:53;;;;;;;;;;;8.10;99.90;;;;;;5110244;28;19928;-71
2022/05/01 00:11:20;;;;;;;;;;;8.00;99.90;;;;;;5110388;28;19933;-70
2022/05/01 00:13:47;;;;;;;;;;;7.90;99.90;;;;;;5109800;28;20315;-71
2022/05/01 00:16:14;;;;;;;;;;;7.80;99.90;;;;;;5110261;28;19931;-71
2022/05/01 00:18:41;;;;;;;;;;;7.70;99.90;;;;;;5110168;28;20352;-71
2022/05/01 00:21:08;;;;;;;;;;;7.70;99.90;;;;;;5109356;28;19928;-71
2022/05/01 00:23:35;;;;;;;;;;;7.60;99.90;;;;;;5109739;28;19973;-72
2022/05/01 00:26:04;;;;;;;;;;;7.60;99.90;;;;;;5111546;28;19931;-70
2022/05/01 00:28:32;;;;;;;;;;;7.70;99.90;;;;;;5113196;28;19928;-71
2022/05/01 00:30:59;;;;;;;;;;;7.70;99.90;;;;;;5113276;28;19931;-71
2022/05/01 00:36:28;;;;;;;;;;;7.80;99.90;;;;;;5113033;28;19923;-71
2022/05/01 00:38:55;;;;;;;;;;;7.80;99.90;;;;;;5113178;28;19927;-71
2022/05/01 00:41:24;;;;;;;;;;;7.80;99.90;;;;;;5113706;28;19927;-71
2022/05/01 00:43:57;;;;;;;;;;;7.80;99.90;;;;;;5113368;28;20406;-71
2022/05/01 00:46:24;;;;;;;;;;;7.90;99.90;;;;;;5113280;28;20340;-71
2022/05/01 00:48:51;;;;;;;;;;;7.90;99.90;;;;;;5112716;28;19930;-71
2022/05/01 00:51:19;;;;;;;;;;;7.90;99.90;;;;;;5112978;28;19967;-71
2022/05/01 00:53:46;;;;;;;;;;;7.90;99.90;;;;;;5113002;28;20292;-71
2022/05/01 00:56:13;;;;;;;;;;;8.00;99.90;;;;;;5113155;28;19931;-71
2022/05/01 00:58:42;;;;;;;;;;;8.10;99.90;;;;;;5113284;28;19927;-71
2022/05/01 01:01:09;;;;;;;;;;;8.10;99.90;;;;;;5112388;28;19930;-71
2022/05/01 01:03:36;;;;;;;;;;;8.20;99.90;;;;;;5112766;28;19924;-71
2022/05/01 01:06:03;;;;;;;;;;;8.20;99.90;;;;;;5112819;28;19924;-71
2022/05/01 01:08:30;;;;;;;;;;;8.20;99.90;;;;;;5113205;28;19977;-71
2022/05/01 01:10:57;;;;;;;;;;;8.20;99.90;;;;;;5112775;28;20403;-72
2022/05/01 01:13:26;;;;;;;;;;;8.20;99.90;;;;;;5112680;28;20353;-69
2022/05/01 01:15:54;;;;;;;;;;;8.20;99.90;;;;;;5112802;28;19931;-71
2022/05/01 01:18:21;;;;;;;;;;;8.20;99.90;;;;;;5112742;28;20018;-69
2022/05/01 01:20:49;;;;;;;;;;;8.10;99.90;;;;;;5112507;28;19924;-72
2022/05/01 01:23:16;;;;;;;;;;;8.10;99.90;;;;;;5112806;28;19924;-71
2022/05/01 01:25:43;;;;;;;;;;;8.10;99.90;;;;;;5112164;28;20352;-71
2022/05/01 01:28:10;;;;;;;;;;;8.10;99.90;;;;;;5112523;28;19960;-71
2022/05/01 01:33:22;;;;;;;;;;;8.00;99.90;;;;;;5112866;28;20006;-71
2022/05/01 01:35:51;;;;;;;;;;;8.10;99.90;;;;;;5112645;28;19930;-71
2022/05/01 01:38:18;;;;;;;;;;;8.10;99.90;;;;;;5112822;28;19931;-71
2022/05/01 01:40:47;;;;;;;;;;;8.20;99.90;;;;;;5112648;28;19923;-73
2022/05/01 01:43:16;;;;;;;;;;;8.20;99.90;;;;;;5112721;28;19927;-71
2022/05/01 01:45:43;;;;;;;;;;;8.20;99.90;;;;;;5112232;28;20395;-72
2022/05/01 01:48:10;;;;;;;;;;;8.30;99.90;;;;;;5112711;28;19953;-71
2022/05/01 01:50:37;;;;;;;;;;;8.30;99.90;;;;;;5112252;28;19984;-71
2022/05/01 01:53:05;;;;;;;;;;;8.40;99.90;;;;;;5112317;28;20372;-71
2022/05/01 01:55:32;;;;;;;;;;;8.40;99.90;;;;;;5111642;28;19924;-70
2022/05/01 01:57:59;;;;;;;;;;;8.40;99.90;;;;;;5112631;28;20010;-71
2022/05/01 02:00:26;;;;;;;;;;;8.40;99.90;;;;;;5111544;28;19927;-72
2022/05/01 02:02:57;;;;;;;;;;;8.50;99.90;;;;;;5112367;28;20280;-71
2022/05/01 02:05:24;;;;;;;;;;;8.50;99.90;;;;;;5111716;28;19924;-72
2022/05/01 02:07:51;;;;;;;;;;;8.60;99.90;;;;;;5112062;28;19927;-70
2022/05/01 02:10:20;;;;;;;;;;;8.50;99.90;;;;;;5111745;28;19924;-71
2022/05/01 02:12:46;;;;;;;;;;;8.50;99.90;;;;;;5112076;28;19923;-71
2022/05/01 02:15:13;;;;;;;;;;;8.40;99.90;;;;;;5112031;28;19924;-72
2022/05/01 02:17:40;;;;;;;;;;;8.40;99.90;;;;;;5112081;28;19924;-72
2022/05/01 02:20:08;;;;;;;;;;;8.40;99.90;;;;;;5111520;28;19927;-72
2022/05/01 02:22:35;;;;;;;;;;;8.50;99.90;;;;;;5108206;27;19966;-71
2022/05/01 02:25:02;;;;;;;;;;;8.40;99.90;;;;;;5123436;27;19927;-72
2022/05/01 02:27:30;;;;;;;;;;;8.40;99.90;;;;;;5131048;27;19927;-70
2022/05/01 02:29:57;;;;;;;;;;;8.50;99.90;;;;;;5118572;27;20293;-72
2022/05/01 02:32:24;;;;;;;;;;;8.50;99.90;;;;;;5111017;27;20368;-72
2022/05/01 02:34:51;;;;;;;;;;;8.50;99.90;;;;;;5107504;28;19975;-71
2022/05/01 02:37:18;;;;;;;;;;;8.50;99.90;;;;;;5110860;28;19924;-71
2022/05/01 02:39:44;;;;;;;;;;;8.50;99.90;;;;;;5110552;28;19930;-72
2022/05/01 02:42:11;;;;;;;;;;;8.60;99.90;;;;;;5111174;28;19963;-73
2022/05/01 02:44:39;;;;;;;;;;;8.60;99.90;;;;;;5111020;28;20313;-71
2022/05/01 02:47:06;;;;;;;;;;;8.60;99.90;;;;;;5111028;28;19968;-71
2022/05/01 02:49:35;;;;;;;;;;;8.50;99.90;;;;;;5110559;28;19980;-71
2022/05/01 02:52:02;;;;;;;;;;;8.50;99.90;;;;;;5110952;28;19928;-71
2022/05/01 02:54:29;;;;;;;;;;;8.40;99.90;;;;;;5110833;28;19928;-72
2022/05/01 02:56:56;;;;;;;;;;;8.40;99.90;;;;;;5111137;28;19924;-72
2022/05/01 02:59:22;;;;;;;;;;;8.50;99.90;;;;;;5110797;28;19927;-71
2022/05/01 03:01:51;;;;;;;;;;;8.50;99.90;;;;;;5111166;28;20383;-71
2022/05/01 03:04:18;;;;;;;;;;;8.40;99.90;;;;;;5109946;28;20040;-71
2022/05/01 03:06:44;;;;;;;;;;;8.50;99.90;;;;;;5110921;28;19927;-72
2022/05/01 03:09:11;;;;;;;;;;;8.50;99.90;;;;;;5110635;28;19928;-71
2022/05/01 03:11:38;;;;;;;;;;;8.50;99.90;;;;;;5111047;28;19950;-71
2022/05/01 03:14:05;;;;;;;;;;;8.50;99.90;;;;;;5110762;28;19924;-70
2022/05/01 03:16:32;;;;;;;;;;;8.50;99.90;;;;;;5110556;28;19968;-72
2022/05/01 03:24:28;;;;;;;;;;;8.50;99.90;;;;;;5110972;28;20382;-72
2022/05/01 03:26:55;;;;;;;;;;;8.50;99.90;;;;;;5110868;28;20478;-72
2022/05/01 03:29:22;;;;;;;;;;;8.40;99.90;;;;;;5110654;28;19924;-72
2022/05/01 03:31:50;;;;;;;;;;;8.40;99.90;;;;;;5110535;28;19924;-72
2022/05/01 03:34:18;;;;;;;;;;;8.40;99.90;;;;;;5110381;28;20454;-70
2022/05/01 03:36:45;;;;;;;;;;;8.50;99.90;;;;;;5110128;28;20410;-71
2022/05/01 03:39:12;;;;;;;;;;;8.40;99.90;;;;;;5110438;28;19967;-72
2022/05/01 03:41:39;;;;;;;;;;;8.40;99.90;;;;;;5110784;28;19930;-72
2022/05/01 03:44:07;;;;;;;;;;;8.50;99.90;;;;;;5110460;28;20324;-72
2022/05/01 03:46:36;;;;;;;;;;;8.50;99.90;;;;;;5110508;28;19936;-72
2022/05/01 03:49:03;;;;;;;;;;;8.40;99.90;;;;;;5110505;28;20318;-73
2022/05/01 03:51:31;;;;;;;;;;;8.40;99.90;;;;;;5110182;28;19924;-71
2022/05/01 03:53:59;;;;;;;;;;;8.50;99.90;;;;;;5105188;28;19984;-71
2022/05/01 03:56:26;;;;;;;;;;;8.40;99.90;;;;;;5103334;28;19923;-72
2022/05/01 03:58:52;;;;;;;;;;;8.40;99.90;;;;;;5110078;28;19924;-72
2022/05/01 04:01:19;;;;;;;;;;;8.40;99.90;;;;;;5112204;28;19927;-72
2022/05/01 04:03:46;;;;;;;;;;;8.40;99.90;;;;;;5114592;28;19924;-72
2022/05/01 04:06:13;;;;;;;;;;;8.40;99.90;;;;;;5114687;28;19977;-72
2022/05/01 04:08:41;;;;;;;;;;;8.40;99.90;;;;;;5115713;28;19924;-72
2022/05/01 04:11:09;;;;;;;;;;;8.40;99.90;;;;;;5114261;28;19924;-72
2022/05/01 04:13:35;;;;;;;;;;;8.50;99.90;;;;;;5114289;28;19923;-71
2022/05/01 04:16:02;;;;;;;;;;;8.50;99.90;;;;;;5114416;28;19923;-72
2022/05/01 04:18:31;;;;;;;;;;;8.50;99.90;;;;;;5114352;28;19924;-72
2022/05/01 04:20:58;;;;;;;;;;;8.50;99.90;;;;;;5114401;28;19955;-71
2022/05/01 04:23:24;;;;;;;;;;;8.50;99.90;;;;;;5114245;28;19928;-72
2022/05/01 04:25:52;;;;;;;;;;;8.50;99.90;;;;;;5114100;28;19931;-71
2022/05/01 04:28:19;;;;;;;;;;;8.50;99.90;;;;;;5114408;28;19924;-71
2022/05/01 04:30:50;;;;;;;;;;;8.50;99.90;;;;;;5114400;28;19987;-71
2022/05/01 04:33:17;;;;;;;;;;;8.60;99.90;;;;;;5114607;28;20023;-73
2022/05/01 04:35:44;;;;;;;;;;;8.50;99.90;;;;;;5113744;28;19927;-72
2022/05/01 04:38:12;;;;;;;;;;;8.50;99.90;;;;;;5113914;28;19928;-71
2022/05/01 04:40:40;;;;;;;;;;;8.50;99.90;;;;;;5113725;28;19969;-71
2022/05/01 04:43:09;;;;;;;;;;;8.50;99.90;;;;;;5114865;28;19923;-73
2022/05/01 04:45:36;;;;;;;;;;;8.60;99.90;;;;;;5113275;28;19963;-73
2022/05/01 04:48:04;;;;;;;;;;;8.70;99.90;;;;;;5113997;28;19932;-72
2022/05/01 04:50:31;;;;;;;;;;;8.70;99.90;;;;;;5113993;28;19927;-72
2022/05/01 04:53:00;;;;;;;;;;;8.70;99.90;;;;;;5113593;28;19923;-73
2022/05/01 04:55:27;;;;;;;;;;;8.70;99.90;;;;;;5113596;28;19935;-73
2022/05/01 04:57:54;;;;;;;;;;;8.70;99.90;;;;;;5113560;28;19924;-73
2022/05/01 05:00:22;;;;;;;;;;;8.70;99.90;;;;;;5112804;28;19931;-73
2022/05/01 05:02:50;;;;;;;;;;;8.70;99.90;;;;;;5101961;27;19924;-73
2022/05/01 05:05:18;;;;;;;;;;;8.80;99.90;;;;;;5112521;28;19930;-73
2022/05/01 05:07:45;;;;;;;;;;;8.80;99.90;;;;;;5113332;28;19975;-73
2022/05/01 05:10:11;;;;;;;;;;;8.90;99.90;;;;;;5113075;28;19923;-71
2022/05/01 05:12:42;;;;;;;;;;;8.90;99.90;;;;;;5093702;28;19921;-73
2022/05/01 05:15:10;;;;;;;;;;;8.80;99.90;;;;;;5092989;28;19951;-73
2022/05/01 05:17:39;;;;;;;;;;;8.80;99.90;;;;;;5092680;28;19924;-74
2022/05/01 05:20:06;;;;;;;;;;;8.80;99.90;;;;;;5102093;28;19985;-73
2022/05/01 05:22:33;;;;;;;;;;;8.80;99.90;;;;;;5112731;28;19927;-72
2022/05/01 05:25:00;;;;;;;;;;;8.80;99.90;;;;;;5103785;27;19978;-72
2022/05/01 05:27:27;;;;;;;;;;;8.90;99.90;;;;;;5112420;27;20364;-72
2022/05/01 05:29:54;;;;;;;;;;;8.90;99.90;;;;;;5107366;28;19928;-73
2022/05/01 05:32:21;;;;;;;;;;;9.00;99.90;;;;;;5109534;28;19924;-72
2022/05/01 05:34:50;;;;;;;;;;;8.90;99.90;;;;;;5108901;28;19924;-73
2022/05/01 05:37:17;;;;;;;;;;;9.00;99.90;;;;;;5111087;28;19924;-71
2022/05/01 05:39:44;;;;;;;;;;;9.00;99.90;;;;;;5105330;28;19924;-73
2022/05/01 05:42:10;;;;;;;;;;;9.00;99.90;;;;;;5110688;28;20436;-72
2022/05/01 05:44:38;;;;;;;;;;;9.00;99.90;;;;;;5107098;28;19932;-72
2022/05/01 05:47:05;;;;;;;;;;;9.10;99.90;;;;;;5107178;28;19924;-73
2022/05/01 05:49:32;;;;;;;;;;;9.10;99.90;;;;;;5109206;28;19927;-73
2022/05/01 05:52:01;;;;;;;;;;;9.10;99.90;;;;;;5102395;28;20372;-72
2022/05/01 05:54:28;;;;;;;;;;;9.10;99.90;;;;;;5108773;27;20391;-71
2022/05/01 05:56:55;;;;;;;;;;;9.20;99.90;;;;;;5116784;27;19930;-72
2022/05/01 05:59:21;;;;;;;;;;;9.30;99.90;;;;;;5113974;27;19923;-73
2022/05/01 06:01:48;;;;;;;;;;;9.30;99.90;;;;;;5107854;28;19931;-72
2022/05/01 06:04:15;;;;;;;;;;;9.40;99.90;;;;;;5110193;28;19923;-71
2022/05/01 06:06:42;;;;;;;;;;;9.40;99.90;;;;;;5111237;28;19923;-72
2022/05/01 06:09:10;;;;;;;;;;;9.50;99.90;;;;;;5108826;28;19932;-71
2022/05/01 06:11:37;;;;;;;;;;;9.60;99.90;;;;;;5106589;28;19938;-72
2022/05/01 06:14:03;;;;;;;;;;;9.60;99.90;;;;;;5107631;28;19924;-72
2022/05/01 06:16:32;;;;;;;;;;;9.70;99.90;;;;;;5108099;28;20407;-72
2022/05/01 06:18:59;;;;;;;;;;;9.80;99.90;;;;;;5110290;28;19923;-72
2022/05/01 06:21:26;;;;;;;;;;;9.80;99.90;;;;;;5129502;27;20022;-72
2022/05/01 06:23:53;;;;;;;;;;;9.80;99.90;;;;;;5127870;27;19923;-72
2022/05/01 06:26:21;;;;;;;;;;;9.80;99.90;;;;;;5105633;28;19924;-73
2022/05/01 06:28:48;;;;;;;;;;;9.80;99.90;;;;;;5106487;28;19931;-73
2022/05/01 06:31:16;;;;;;;;;;;9.90;99.90;;;;;;5107082;28;19931;-73
2022/05/01 06:33:44;;;;;;;;;;;10.00;99.90;;;;;;5108844;28;20416;-73
2022/05/01 06:36:11;;;;;;;;;;;10.00;99.90;;;;;;5108674;28;19930;-74
2022/05/01 06:38:38;;;;;;;;;;;10.10;99.90;;;;;;5110221;28;19924;-73
2022/05/01 06:41:05;;;;;;;;;;;10.20;99.90;;;;;;5108252;28;19923;-73
2022/05/01 06:43:34;;;;;;;;;;;10.20;99.90;;;;;;5109430;28;19976;-73
2022/05/01 06:46:01;;;;;;;;;;;10.30;99.90;;;;;;5104904;28;19923;-73
2022/05/01 06:48:27;;;;;;;;;;;10.40;99.90;;;;;;5108344;28;19932;-72
2022/05/01 06:50:54;;;;;;;;;;;10.50;99.90;;;;;;5106430;28;19924;-71
2022/05/01 06:53:21;;;;;;;;;;;10.50;99.90;;;;;;5109641;28;19954;-74
2022/05/01 06:55:48;;;;;;;;;;;10.50;99.90;;;;;;5110676;28;19944;-72
2022/05/01 06:58:14;;;;;;;;;;;10.60;99.90;;;;;;5110726;28;19924;-72
2022/05/01 07:00:43;;;;;;;;;;;10.60;99.90;;;;;;5110396;28;19928;-72
2022/05/01 07:03:10;;;;;;;;;;;10.60;99.90;;;;;;5110616;28;19928;-73
2022/05/01 07:05:36;;;;;;;;;;;10.70;99.90;;;;;;5110865;28;19928;-71
2022/05/01 07:08:03;;;;;;;;;;;10.80;99.90;;;;;;5108674;28;19924;-72
2022/05/01 07:10:30;;;;;;;;;;;10.90;99.90;;;;;;5110717;28;19924;-78
2022/05/01 07:12:57;;;;;;;;;;;10.90;99.90;;;;;;5097194;28;19931;-71
2022/05/01 07:15:24;;;;;;;;;;;11.00;99.90;;;;;;5090928;28;19924;-71
2022/05/01 07:17:52;;;;;;;;;;;11.10;99.90;;;;;;5091333;28;19978;-71
2022/05/01 07:20:18;;;;;;;;;;;11.20;99.90;;;;;;5089378;28;19924;-71
2022/05/01 07:22:45;;;;;;;;;;;11.30;99.90;;;;;;5104737;28;20380;-71
2022/05/01 07:25:12;;;;;;;;;;;11.40;99.90;;;;;;5109503;28;19924;-71
2022/05/01 07:27:39;;;;;;;;;;;11.50;99.90;;;;;;5109685;28;19924;-71
2022/05/01 07:30:07;;;;;;;;;;;11.60;99.90;;;;;;5109689;28;19927;-71
2022/05/01 07:32:33;;;;;;;;;;;11.60;99.90;;;;;;5109795;28;19924;-71
2022/05/01 07:35:01;;;;;;;;;;;11.70;99.90;;;;;;5109313;28;20391;-71
2022/05/01 07:37:28;;;;;;;;;;;11.70;99.90;;;;;;5110381;28;19931;-73
2022/05/01 07:39:55;;;;;;;;;;;11.80;99.90;;;;;;5110102;28;19935;-72
2022/05/01 07:42:22;;;;;;;;;;;12.00;99.90;;;;;;5110283;28;19924;-71
2022/05/01 07:44:49;;;;;;;;;;;12.10;99.90;;;;;;5109937;28;19924;-72
2022/05/01 07:47:16;;;;;;;;;;;12.10;99.90;;;;;;5110495;28;20395;-71
2022/05/01 07:49:42;;;;;;;;;;;12.20;99.90;;;;;;5109998;28;19927;-72
2022/05/01 07:52:11;;;;;;;;;;;12.40;99.90;;;;;;5110474;28;19977;-72
2022/05/01 07:54:37;;;;;;;;;;;12.50;99.90;;;;;;5109883;28;20387;-72
2022/05/01 07:57:05;;;;;;;;;;;12.70;99.90;;;;;;5110079;28;19924;-72
2022/05/01 07:59:31;;;;;;;;;;;12.80;99.90;;;;;;5109879;28;20292;-73
2022/05/01 08:01:58;;;;;;;;;;;12.90;99.90;;;;;;5109968;28;19924;-71
2022/05/01 08:04:30;;;;;;;;;;;13.00;99.90;;;;;;5109732;28;19927;-71
2022/05/01 08:07:00;;;;;;;;;;;13.20;99.90;;;;;;5109959;28;19924;-71
2022/05/01 08:09:29;;;;;;;;;;;13.40;99.90;;;;;;5109967;28;19928;-71
2022/05/01 08:11:56;;;;;;;;;;;13.50;99.90;;;;;;5109864;28;19960;-71
2022/05/01 08:14:23;;;;;;;;;;;13.70;99.90;;;;;;5109860;28;19924;-71
2022/05/01 08:16:50;;;;;;;;;;;13.80;99.90;;;;;;5109912;28;20386;-71
2022/05/01 08:22:01;;;;;;;;;;;14.10;99.90;;;;;;5110158;28;20350;-73
2022/05/01 08:24:29;;;;;;;;;;;14.00;99.90;;;;;;5109447;28;19931;-72
2022/05/01 08:26:56;;;;;;;;;;;14.30;99.90;;;;;;5110088;28;20279;-71
2022/05/01 08:29:23;;;;;;;;;;;14.50;99.90;;;;;;5109856;28;19924;-71
2022/05/01 08:31:50;;;;;;;;;;;14.60;99.90;;;;;;5112160;28;19924;-72
2022/05/01 08:34:18;;;;;;;;;;;14.70;99.90;;;;;;5121616;28;19931;-71
2022/05/01 08:36:45;;;;;;;;;;;14.80;99.90;;;;;;5130277;28;19923;-71
2022/05/01 08:39:12;;;;;;;;;;;14.70;99.90;;;;;;5129609;28;20030;-71
2022/05/01 08:41:40;;;;;;;;;;;14.60;99.90;;;;;;5130345;28;19930;-72
2022/05/01 08:44:09;;;;;;;;;;;14.60;99.90;;;;;;5130104;28;20302;-71
2022/05/01 08:46:48;;;;;;;;;;;14.60;99.90;;;;;;5131133;27;19931;-72
2022/05/01 08:49:17;;;;;;;;;;;14.70;99.90;;;;;;5133715;27;19928;-72
2022/05/01 08:51:44;;;;;;;;;;;15.00;99.90;;;;;;5134131;27;20518;-71
2022/05/01 08:54:12;;;;;;;;;;;15.10;99.90;;;;;;5133920;27;19923;-72
2022/05/01 08:56:41;;;;;;;;;;;15.00;99.90;;;;;;5134380;27;20426;-71
2022/05/01 08:59:10;;;;;;;;;;;15.00;99.90;;;;;;5133901;27;20455;-72
2022/05/01 09:01:37;;;;;;;;;;;15.30;99.90;;;;;;5134189;27;19930;-72
2022/05/01 09:04:06;;;;;;;;;;;15.50;99.90;;;;;;5133546;27;19976;-72
2022/05/01 09:06:34;;;;;;;;;;;15.40;99.90;;;;;;5134078;27;20014;-70
2022/05/01 09:09:05;;;;;;;;;;;15.50;99.90;;;;;;5133492;27;20000;-72
2022/05/01 09:14:17;;;;;;;;;;;16.00;99.90;;;;;;5112998;28;19926;-72
2022/05/01 09:17:04;;;;;;;;;;;16.00;99.90;;;;;;5112911;28;19989;-73
2022/05/01 09:19:31;;;;;;;;;;;15.80;99.90;;;;;;5112607;28;19931;-72
2022/05/01 09:22:00;;;;;;;;;;;15.90;99.90;;;;;;5112926;28;19930;-71
2022/05/01 09:24:27;;;;;;;;;;;16.10;99.90;;;;;;5112517;28;20022;-72
2022/05/01 09:26:55;;;;;;;;;;;16.30;99.90;;;;;;5112733;28;20376;-72
2022/05/01 09:29:23;;;;;;;;;;;16.30;99.90;;;;;;5112412;28;19924;-71
2022/05/01 09:31:52;;;;;;;;;;;16.30;99.90;;;;;;5112615;28;19927;-72
2022/05/01 09:34:19;;;;;;;;;;;16.30;99.90;;;;;;5112366;28;20014;-72
2022/05/01 09:36:46;;;;;;;;;;;16.10;99.90;;;;;;5112623;28;19928;-71
2022/05/01 09:39:17;;;;;;;;;;;16.10;99.90;;;;;;5112204;28;19923;-72
2022/05/01 09:41:44;;;;;;;;;;;16.30;99.90;;;;;;5112337;28;19924;-71
2022/05/01 09:44:15;;;;;;;;;;;16.20;99.90;;;;;;5112230;28;19936;-72
2022/05/01 09:46:43;;;;;;;;;;;16.10;99.90;;;;;;5112691;28;19928;-72
2022/05/01 09:49:12;;;;;;;;;;;15.90;99.90;;;;;;5112050;28;19973;-72
2022/05/01 09:51:39;;;;;;;;;;;15.70;99.90;;;;;;5112559;28;20027;-72
2022/05/01 09:54:06;;;;;;;;;;;15.70;99.90;;;;;;5111971;28;19938;-72
2022/05/01 09:56:46;;;;;;;;;;;15.60;99.90;;;;;;5112597;28;19927;-70
2022/05/01 09:59:14;;;;;;;;;;;15.50;99.90;;;;;;5111971;28;19968;-72
2022/05/01 10:01:42;;;;;;;;;;;15.30;99.90;;;;;;5111944;28;20395;-73
2022/05/01 10:04:11;;;;;;;;;;;15.50;99.90;;;;;;5111631;28;19963;-71
2022/05/01 10:06:38;;;;;;;;;;;15.70;99.90;;;;;;5111944;28;19976;-72
2022/05/01 10:09:05;;;;;;;;;;;15.70;99.90;;;;;;5111840;28;19924;-72
2022/05/01 10:11:32;;;;;;;;;;;15.60;99.90;;;;;;5100214;28;19924;-72
2022/05/01 10:13:59;;;;;;;;;;;15.40;99.90;;;;;;5091037;28;19925;-72
2022/05/01 10:16:26;;;;;;;;;;;15.40;99.90;;;;;;5091576;28;19924;-72
2022/05/01 10:18:53;;;;;;;;;;;15.60;99.90;;;;;;5091028;28;19924;-72
2022/05/01 10:21:22;;;;;;;;;;;15.50;99.90;;;;;;5091426;28;19924;-72
2022/05/01 10:23:49;;;;;;;;;;;15.70;99.90;;;;;;5091446;28;20359;-72
2022/05/01 10:26:18;;;;;;;;;;;15.80;99.90;;;;;;5092750;28;19924;-72
2022/05/01 10:28:49;;;;;;;;;;;15.70;99.90;;;;;;5092536;28;19928;-72
2022/05/01 10:34:16;;;;;;;;;;;16.00;99.90;;;;;;5091010;28;20086;-72
2022/05/01 10:36:52;;;;;;;;;;;16.00;99.90;;;;;;5090954;28;19928;-72
2022/05/01 10:39:20;;;;;;;;;;;16.30;99.90;;;;;;5090703;28;19939;-72
2022/05/01 10:41:48;;;;;;;;;;;16.50;99.90;;;;;;5090971;28;19955;-71
2022/05/01 10:44:29;;;;;;;;;;;16.50;99.90;;;;;;5090480;28;19932;-72
2022/05/01 10:47:04;;;;;;;;;;;16.60;99.90;;;;;;5091028;28;19960;-72
2022/05/01 10:49:36;;;;;;;;;;;16.80;99.90;;;;;;5090685;28;19931;-72
2022/05/01 10:52:17;;;;;;;;;;;16.90;99.90;;;;;;5091024;28;19928;-72
2022/05/01 10:54:50;;;;;;;;;;;16.90;99.90;;;;;;5090705;28;19989;-72
2022/05/01 10:57:18;;;;;;;;;;;16.90;99.90;;;;;;5090769;28;20350;-71
2022/05/01 10:59:49;;;;;;;;;;;17.00;99.90;;;;;;5090634;28;20018;-73
2022/05/01 11:02:24;;;;;;;;;;;17.00;99.90;;;;;;5090757;28;19924;-72
2022/05/01 11:04:52;;;;;;;;;;;17.20;99.90;;;;;;5090497;28;19924;-73
2022/05/01 11:07:21;;;;;;;;;;;17.40;99.90;;;;;;5090446;28;20280;-72
2022/05/01 11:09:49;;;;;;;;;;;17.50;99.90;;;;;;5089971;28;19931;-72
2022/05/01 11:12:16;;;;;;;;;;;17.50;99.90;;;;;;5108251;28;19924;-71
2022/05/01 11:14:50;;;;;;;;;;;17.60;99.90;;;;;;5110442;28;19923;-72
2022/05/01 11:17:27;;;;;;;;;;;17.80;99.90;;;;;;5110500;28;20023;-72
2022/05/01 11:19:56;;;;;;;;;;;18.00;99.90;;;;;;5110639;28;19924;-72
2022/05/01 11:22:27;;;;;;;;;;;17.90;99.90;;;;;;5110390;28;20011;-72
2022/05/01 11:24:53;;;;;;;;;;;17.90;99.90;;;;;;5110341;28;19924;-73
2022/05/01 11:27:21;;;;;;;;;;;18.20;99.90;;;;;;5110349;28;19981;-72
2022/05/01 11:30:07;;;;;;;;;;;18.40;99.90;;;;;;5110046;28;19950;-72
2022/05/01 11:32:43;;;;;;;;;;;18.90;99.90;;;;;;5110511;28;19928;-73
2022/05/01 11:35:11;;;;;;;;;;;19.40;99.90;;;;;;5110085;28;19928;-72
2022/05/01 11:37:50;;;;;;;;;;;19.90;99.90;;;;;;5110551;28;19924;-71
2022/05/01 11:40:26;;;;;;;;;;;19.40;99.90;;;;;;5109851;28;19924;-72
2022/05/01 11:42:54;;;;;;;;;;;19.30;99.90;;;;;;5110462;28;20413;-73
2022/05/01 11:45:23;;;;;;;;;;;19.40;99.90;;;;;;5109924;28;19928;-70
2022/05/01 11:47:50;;;;;;;;;;;19.70;99.90;;;;;;5110624;28;19959;-71
2022/05/01 11:50:18;;;;;;;;;;;19.80;99.90;;;;;;5109805;28;20370;-73
2022/05/01 11:52:47;;;;;;;;;;;20.30;99.90;;;;;;5110388;28;19924;-71
2022/05/01 11:55:15;;;;;;;;;;;21.10;99.90;;;;;;5110459;28;19949;-71
2022/05/01 12:03:12;;;;;;;;;;;21.80;99.90;;;;;;5110282;28;19920;-71
2022/05/01 12:05:43;;;;;;;;;;;21.80;99.90;;;;;;5110333;28;19924;-72
2022/05/01 12:08:10;;;;;;;;;;;21.90;99.90;;;;;;5109583;28;19927;-73
2022/05/01 12:10:42;;;;;;;;;;;22.90;99.90;;;;;;5097640;28;19924;-70
2022/05/01 12:13:16;;;;;;;;;;;23.80;99.90;;;;;;5107155;28;20292;-73
2022/05/01 12:15:43;;;;;;;;;;;24.00;99.90;;;;;;5098311;28;19924;-73
2022/05/01 12:18:10;;;;;;;;;;;22.40;99.90;;;;;;5107844;28;19924;-72
2022/05/01 12:20:37;;;;;;;;;;;22.00;99.90;;;;;;5109846;28;19924;-73
2022/05/01 12:23:04;;;;;;;;;;;21.80;99.90;;;;;;5113141;28;19924;-73
2022/05/01 12:25:31;;;;;;;;;;;22.30;99.90;;;;;;5113817;28;19924;-73
2022/05/01 12:28:00;;;;;;;;;;;22.10;99.90;;;;;;5113878;28;19931;-75
2022/05/01 12:30:30;;;;;;;;;;;21.70;99.90;;;;;;5113487;28;19923;-73
2022/05/01 12:32:57;;;;;;;;;;;22.90;99.90;;;;;;5109369;28;19924;-75
2022/05/01 12:35:24;;;;;;;;;;;23.70;99.90;;;;;;5105357;27;20428;-73
2022/05/01 12:37:51;;;;;;;;;;;24.90;99.90;;;;;;5111542;27;19985;-73
2022/05/01 12:43:50;;;;;;;;;;;25.10;99.90;;;;;;5123432;27;19927;-74
2022/05/01 12:45:55;;;;;;;;;;;24.30;99.90;;;;;;5127040;27;19963;-73
2022/05/01 12:48:22;;;;;;;;;;;23.20;99.90;;;;;;5111663;28;20009;-74
2022/05/01 12:50:51;;;;;;;;;;;23.40;99.90;;;;;;5119797;27;19924;-74
2022/05/01 12:53:22;;;;;;;;;;;23.00;99.90;;;;;;5110967;27;19924;-73
2022/05/01 12:55:48;;;;;;;;;;;22.40;99.90;;;;;;5105020;27;20411;-74
2022/05/01 12:58:26;;;;;;;;;;;22.20;99.90;;;;;;5120526;27;20356;-74
2022/05/01 13:00:53;;;;;;;;;;;22.40;99.90;;;;;;5134089;27;20279;-74
2022/05/01 13:03:21;;;;;;;;;;;21.80;99.90;;;;;;5134592;27;19944;-74
2022/05/01 13:05:55;;;;;;;;;;;22.20;99.90;;;;;;5134612;27;19924;-74
2022/05/01 13:08:22;;;;;;;;;;;22.50;99.90;;;;;;5114848;27;20298;-74
2022/05/01 13:11:04;;;;;;;;;;;23.10;99.90;;;;;;5100414;27;20400;-74
2022/05/01 13:13:41;;;;;;;;;;;22.80;99.90;;;;;;5103274;27;19934;-75
2022/05/01 13:16:08;;;;;;;;;;;22.40;99.90;;;;;;5109281;27;19924;-74
2022/05/01 13:18:35;;;;;;;;;;;22.00;99.90;;;;;;5119787;27;20014;-74
2022/05/01 13:21:01;;;;;;;;;;;21.80;99.90;;;;;;5108272;27;19924;-73
2022/05/01 13:23:28;;;;;;;;;;;22.30;99.90;;;;;;5104340;27;20396;-74
2022/05/01 13:25:55;;;;;;;;;;;22.90;99.90;;;;;;5105298;27;19924;-74
2022/05/01 13:28:22;;;;;;;;;;;23.10;99.90;;;;;;5115732;27;20014;-75
2022/05/01 13:30:51;;;;;;;;;;;22.80;99.90;;;;;;5121711;27;19923;-74
2022/05/01 13:33:17;;;;;;;;;;;22.40;99.90;;;;;;5112107;28;19923;-74
2022/05/01 13:35:44;;;;;;;;;;;22.70;99.90;;;;;;5112468;28;19924;-75
2022/05/01 13:38:11;;;;;;;;;;;25.10;99.90;;;;;;5118801;27;19931;-73
2022/05/01 13:46:08;;;;;;;;;;;28.20;99.90;;;;;;5101014;27;19920;-73
2022/05/01 13:48:35;;;;;;;;;;;27.30;99.90;;;;;;5096687;27;19924;-73
2022/05/01 13:51:02;;;;;;;;;;;26.30;99.90;;;;;;5098961;27;19923;-74
2022/05/01 13:53:29;;;;;;;;;;;26.20;99.90;;;;;;5106576;27;19928;-75
2022/05/01 13:55:57;;;;;;;;;;;27.60;99.90;;;;;;5101693;27;19924;-75
2022/05/01 13:58:24;;;;;;;;;;;28.50;99.90;;;;;;5104912;27;20410;-75
2022/05/01 14:00:51;;;;;;;;;;;27.60;99.90;;;;;;5111654;27;19992;-74
2022/05/01 14:03:19;;;;;;;;;;;26.20;99.90;;;;;;5103493;27;19924;-74
2022/05/01 14:05:46;;;;;;;;;;;25.40;99.90;;;;;;5111324;27;19930;-73
2022/05/01 14:08:12;;;;;;;;;;;24.40;99.90;;;;;;5119262;27;19924;-71
2022/05/01 14:10:39;;;;;;;;;;;23.20;99.90;;;;;;5116332;27;19977;-74
2022/05/01 14:13:07;;;;;;;;;;;22.40;99.90;;;;;;5129668;27;19923;-74
2022/05/01 14:15:34;;;;;;;;;;;21.50;99.90;;;;;;5131906;27;20394;-72
2022/05/01 14:18:01;;;;;;;;;;;20.80;99.90;;;;;;5132354;27;20346;-66
2022/05/01 14:20:31;;;;;;;;;;;19.80;99.90;;;;;;5131997;27;19923;-72
2022/05/01 14:22:59;;;;;;;;;;;19.50;99.90;;;;;;5132306;27;19927;-72
2022/05/01 14:25:26;;;;;;;;;;;19.00;99.90;;;;;;5131695;27;20454;-70
2022/05/01 14:27:53;;;;;;;;;;;18.60;99.90;;;;;;5132255;27;19923;-72
2022/05/01 14:30:19;;;;;;;;;;;18.40;99.90;;;;;;5131804;27;19924;-71
2022/05/01 14:32:47;;;;;;;;;;;18.20;99.90;;;;;;5110448;27;19935;-72
2022/05/01 14:35:17;;;;;;;;;;;18.00;99.90;;;;;;5107103;28;19988;-67
2022/05/01 14:37:51;;;;;;;;;;;17.80;99.90;;;;;;5110906;28;19928;-72
2022/05/01 14:40:19;;;;;;;;;;;17.70;99.90;;;;;;5102726;28;20010;-72
2022/05/01 14:42:48;;;;;;;;;;;17.50;99.90;;;;;;5109438;28;20379;-72
2022/05/01 14:45:16;;;;;;;;;;;17.40;99.90;;;;;;5105977;28;19926;-71
2022/05/01 14:47:45;;;;;;;;;;;17.30;99.90;;;;;;5108579;28;20054;-70
2022/05/01 14:50:12;;;;;;;;;;;17.20;99.90;;;;;;5108241;28;19928;-71
2022/05/01 14:52:39;;;;;;;;;;;17.20;99.90;;;;;;5116183;27;19931;-71
2022/05/01 14:55:08;;;;;;;;;;;17.10;99.90;;;;;;5110499;28;20465;-71
2022/05/01 14:57:35;;;;;;;;;;;17.00;99.90;;;;;;5110832;28;19927;-72
2022/05/01 15:08:34;;;;;;;;;;;16.80;99.90;;;;;;5110096;27;20030;-73
2022/05/01 15:11:02;;;;;;;;;;;16.70;99.90;;;;;;5103261;28;19924;-73